Time;durP1;ratioP1;P1;durP2;ratioP2;P2;SDS_P1;SDS_P2;PMS_P1;PMS_P2;Temp;Humidity;BMP_temperature;BMP_pressure;BME280_temperature;BME280_humidity;BME280_pressure;Samples;Min_cycle;Max_cycle;Signal;HPM_P1;HPM_P2
2024/04/10 00:00:49;;;;;;;7.45;1.45;;;;;;;20.09;48.87;100128.84;5447174;25;94618;-78
2024/04/10 00:03:17;;;;;;;11.35;2.72;;;;;;;20.00;48.12;100118.91;5353667;25;98433;-77
2024/04/10 00:05:43;;;;;;;12.23;2.00;;;;;;;19.68;48.00;100114.19;5446470;25;94550;-77
2024/04/10 00:08:09;;;;;;;5.35;2.03;;;;;;;19.98;46.77;100137.66;5384226;25;94735;-77
2024/04/10 00:10:35;;;;;;;7.65;1.38;;;;;;;19.95;46.33;100140.56;5413642;25;94486;-77
2024/04/10 00:13:00;;;;;;;2.13;1.23;;;;;;;20.00;45.82;100157.03;5429831;25;94644;-78
2024/04/10 00:15:26;;;;;;;5.88;1.60;;;;;;;19.78;45.63;100140.97;5405438;25;95303;-77
2024/04/10 00:17:52;;;;;;;4.07;1.10;;;;;;;19.74;45.65;100153.69;5414734;25;95035;-77
2024/04/10 00:20:17;;;;;;;11.52;1.50;;;;;;;19.63;45.38;100154.47;5415056;25;94553;-77
2024/04/10 00:22:43;;;;;;;11.13;1.40;;;;;;;19.46;45.43;100146.88;5412877;25;94645;-76
2024/04/10 00:25:08;;;;;;;4.75;2.53;;;;;;;19.64;45.21;100148.16;5370817;26;97783;-77
2024/04/10 00:27:34;;;;;;;6.22;1.50;;;;;;;19.87;45.19;100174.94;5378377;25;94478;-77
2024/04/10 00:29:59;;;;;;;1.95;1.30;;;;;;;19.94;44.85;100167.31;5414647;25;94623;-77
2024/04/10 00:32:25;;;;;;;7.25;1.40;;;;;;;19.65;45.13;100171.19;5413331;25;93822;-77
2024/04/10 00:34:51;;;;;;;3.13;1.55;;;;;;;19.66;45.06;100178.25;5384136;25;94600;-77
2024/04/10 00:37:17;;;;;;;3.50;0.93;;;;;;;19.47;44.03;100180.50;5384273;25;94567;-77
2024/04/10 00:39:43;;;;;;;8.30;0.88;;;;;;;19.41;44.18;100170.31;5354566;25;95069;-77
2024/04/10 00:42:08;;;;;;;3.83;0.80;;;;;;;19.40;43.58;100203.19;5401844;25;94728;-77
2024/04/10 00:44:45;;;;;;;2.65;0.98;;;;;;;19.25;43.29;100167.91;5335336;25;97877;-76
2024/04/10 00:47:11;;;;;;;2.88;0.75;;;;;;;19.11;44.06;100206.19;5418428;25;94786;-77
2024/04/10 00:49:37;;;;;;;1.90;0.85;;;;;;;19.03;43.45;100203.22;5457416;25;94582;-77
2024/04/10 00:52:02;;;;;;;5.97;0.70;;;;;;;19.25;43.48;100236.25;5456145;25;94682;-77
2024/04/10 00:54:28;;;;;;;2.83;1.63;;;;;;;19.22;43.00;100230.19;5427325;25;98012;-77
2024/04/10 00:56:54;;;;;;;3.38;0.80;;;;;;;19.06;43.04;100218.09;5459179;25;94739;-77
2024/04/10 00:59:19;;;;;;;4.97;0.73;;;;;;;18.83;43.05;100249.81;5459944;25;94606;-77
2024/04/10 01:01:45;;;;;;;3.80;0.80;;;;;;;18.87;42.41;100258.41;5367937;25;94636;-78
2024/04/10 01:04:10;;;;;;;4.20;0.80;;;;;;;18.68;42.07;100241.06;5392096;25;94789;-77
2024/04/10 01:06:36;;;;;;;1.95;0.80;;;;;;;18.67;42.26;100265.09;5396641;25;94811;-77
2024/04/10 01:09:02;;;;;;;7.07;0.88;;;;;;;18.73;41.96;100272.63;5370851;25;93693;-77
2024/04/10 01:11:28;;;;;;;11.18;1.42;;;;;;;18.51;42.06;100283.91;5430945;25;94710;-76
2024/04/10 01:13:53;;;;;;;3.40;0.77;;;;;;;18.54;42.63;100276.56;5367770;25;94696;-77
2024/04/10 01:16:19;;;;;;;3.65;0.90;;;;;;;18.58;41.97;100268.38;5428329;25;94640;-77
2024/04/10 01:18:45;;;;;;;4.88;1.02;;;;;;;18.59;41.80;100278.03;5393474;25;94793;-77
2024/04/10 01:21:10;;;;;;;5.95;0.70;;;;;;;18.55;41.81;100290.69;5397843;25;94522;-77
2024/04/10 01:23:36;;;;;;;1.67;0.70;;;;;;;18.58;41.58;100300.28;5460482;25;94746;-76
2024/04/10 01:26:02;;;;;;;2.10;0.70;;;;;;;18.37;42.05;100282.16;5370467;25;94773;-76
2024/04/10 01:28:28;;;;;;;4.35;0.80;;;;;;;18.18;41.61;100305.56;5458746;25;94635;-76
2024/04/10 01:30:53;;;;;;;5.97;1.25;;;;;;;18.19;41.42;100300.19;5398000;25;94739;-76
2024/04/10 01:33:19;;;;;;;16.00;1.23;;;;;;;18.07;41.33;100312.47;5457910;25;94518;-76
2024/04/10 01:35:45;;;;;;;2.03;0.93;;;;;;;18.08;41.61;100316.81;5393522;26;94547;-78
2024/04/10 01:38:10;;;;;;;1.10;0.70;;;;;;;18.17;40.84;100326.00;5431278;25;94587;-77
2024/04/10 01:40:36;;;;;;;0.55;0.52;;;;;;;18.44;40.87;100338.41;5435335;25;94745;-77
2024/04/10 01:43:01;;;;;;;3.03;0.75;;;;;;;18.28;40.49;100343.88;5372206;25;94682;-76
2024/04/10 01:45:27;;;;;;;2.63;0.60;;;;;;;17.94;41.21;100343.41;5436777;25;94727;-77
2024/04/10 01:47:52;;;;;;;2.08;0.85;;;;;;;18.21;39.95;100347.88;5432748;25;94551;-76
2024/04/10 01:50:18;;;;;;;2.10;0.80;;;;;;;17.97;40.37;100360.97;5430959;25;97319;-76
2024/04/10 01:52:43;;;;;;;6.95;1.10;;;;;;;18.12;40.19;100361.75;5467569;25;94811;-76
2024/04/10 01:55:09;;;;;;;2.35;1.17;;;;;;;17.65;40.41;100340.78;5372731;25;94666;-77
2024/04/10 01:57:35;;;;;;;5.72;2.40;;;;;;;17.72;40.81;100359.84;5392450;25;94622;-77
2024/04/10 02:00:01;;;;;;;5.97;0.90;;;;;;;17.81;40.90;100369.91;5370628;25;97420;-77
2024/04/10 02:02:26;;;;;;;6.13;0.85;;;;;;;17.80;40.75;100375.31;5460815;25;97317;-76
2024/04/10 02:04:52;;;;;;;5.00;1.15;;;;;;;17.55;41.30;100350.28;5370952;25;94669;-77
2024/04/10 02:07:17;;;;;;;3.75;1.00;;;;;;;17.87;41.24;100368.66;5400795;25;94655;-76
2024/04/10 02:09:43;;;;;;;2.35;0.90;;;;;;;17.95;42.96;100360.19;5457176;25;94641;-76
2024/04/10 02:12:08;;;;;;;3.92;1.02;;;;;;;18.02;43.99;100358.88;5460723;25;94604;-77
2024/04/10 02:14:35;;;;;;;2.25;1.30;;;;;;;17.63;45.59;100379.84;5461582;25;94767;-76
2024/04/10 02:17:01;;;;;;;6.38;2.15;;;;;;;17.51;46.47;100393.00;5371001;25;94724;-76
2024/04/10 02:19:27;;;;;;;2.05;1.40;;;;;;;17.54;46.59;100406.97;5370228;25;96097;-77
2024/04/10 02:21:55;;;;;;;2.38;1.30;;;;;;;17.51;46.34;100398.31;5431969;25;94486;-77
2024/04/10 02:24:21;;;;;;;5.75;1.65;;;;;;;17.32;46.85;100380.88;5399983;25;94661;-76
2024/04/10 02:26:46;;;;;;;4.35;1.45;;;;;;;17.32;46.85;100394.16;5430875;25;96242;-77
2024/04/10 02:29:12;;;;;;;3.17;1.50;;;;;;;17.37;46.88;100401.84;5430765;25;96240;-77
2024/04/10 02:31:38;;;;;;;2.60;1.35;;;;;;;17.60;46.66;100414.56;5370417;25;97244;-77
2024/04/10 02:34:04;;;;;;;1.75;1.30;;;;;;;17.53;46.72;100423.81;5430924;25;95223;-77
2024/04/10 02:36:30;;;;;;;2.10;1.17;;;;;;;17.22;47.54;100419.53;5400025;25;94737;-77
2024/04/10 02:38:55;;;;;;;4.90;2.00;;;;;;;17.43;46.80;100415.56;5369906;25;97176;-77
2024/04/10 02:41:21;;;;;;;2.80;1.60;;;;;;;17.54;46.73;100438.81;5432110;25;94910;-77
2024/04/10 02:43:47;;;;;;;3.80;1.58;;;;;;;17.48;46.99;100439.16;5469677;25;94688;-77
2024/04/10 02:46:16;;;;;;;2.95;1.48;;;;;;;17.41;47.00;100445.81;5431104;25;94631;-77
2024/04/10 02:48:45;;;;;;;5.28;1.67;;;;;;;17.22;47.83;100451.38;5394432;25;97465;-77
2024/04/10 02:51:10;;;;;;;2.10;1.20;;;;;;;17.14;47.85;100451.81;5461949;25;95774;-77
2024/04/10 02:53:36;;;;;;;2.88;1.40;;;;;;;17.19;47.17;100435.63;5429807;25;94686;-77
2024/04/10 02:56:01;;;;;;;5.03;1.65;;;;;;;17.24;47.62;100445.97;5430698;25;94485;-77
2024/04/10 02:58:27;;;;;;;2.72;1.33;;;;;;;17.43;47.34;100463.34;5456992;25;94579;-77
2024/04/10 03:00:54;;;;;;;5.55;1.85;;;;;;;17.52;47.19;100469.91;5462590;25;94637;-77
2024/04/10 03:03:21;;;;;;;1.75;1.23;;;;;;;17.34;47.54;100479.81;5419905;25;94632;-77
2024/04/10 03:05:58;;;;;;;4.78;1.75;;;;;;;17.25;47.88;100493.63;5367448;25;94800;-77
2024/04/10 03:08:24;;;;;;;3.58;1.60;;;;;;;17.12;47.68;100469.63;5368481;25;97350;-76
2024/04/10 03:10:49;;;;;;;3.80;1.63;;;;;;;17.17;47.60;100499.38;5401000;25;94651;-76
2024/04/10 03:13:15;;;;;;;3.33;1.30;;;;;;;17.07;47.45;100478.78;5368559;25;94639;-77
2024/04/10 03:15:41;;;;;;;2.90;1.20;;;;;;;17.08;47.67;100499.06;5404797;25;94651;-76
2024/04/10 03:18:07;;;;;;;4.43;1.27;;;;;;;17.06;47.62;100508.91;5401643;25;94575;-77
2024/04/10 03:20:32;;;;;;;8.63;1.80;;;;;;;16.95;47.96;100506.88;5343458;25;97143;-77
2024/04/10 03:22:59;;;;;;;3.17;1.27;;;;;;;16.93;47.84;100528.19;5459166;25;95132;-77
2024/04/10 03:25:25;;;;;;;3.97;1.20;;;;;;;16.88;47.93;100532.88;5397425;25;94558;-76
2024/04/10 03:27:51;;;;;;;4.78;1.42;;;;;;;16.76;48.29;100522.97;5434004;25;94601;-77
2024/04/10 03:30:16;;;;;;;5.15;1.65;;;;;;;16.98;47.71;100525.25;5431332;25;95279;-77
2024/04/10 03:32:42;;;;;;;3.28;1.40;;;;;;;16.86;48.45;100534.75;5429889;25;94718;-77
2024/04/10 03:35:08;;;;;;;4.47;1.20;;;;;;;16.70;48.70;100541.84;5425382;25;94607;-77
2024/04/10 03:37:33;;;;;;;3.92;1.33;;;;;;;16.70;48.75;100540.06;5431519;25;94664;-77
2024/04/10 03:39:59;;;;;;;6.97;1.27;;;;;;;16.52;48.64;100512.78;5428600;25;94577;-77
2024/04/10 03:42:25;;;;;;;4.25;1.70;;;;;;;16.57;48.61;100535.50;5397638;25;95040;-77
2024/04/10 03:44:50;;;;;;;4.72;1.13;;;;;;;16.71;48.31;100547.06;5400059;25;94643;-77
2024/04/10 03:47:16;;;;;;;4.43;1.20;;;;;;;16.67;48.52;100534.94;5427606;25;94575;-77
2024/04/10 03:49:42;;;;;;;8.27;1.58;;;;;;;16.63;48.44;100543.13;5367295;25;97695;-77
2024/04/10 03:52:08;;;;;;;4.25;1.75;;;;;;;16.48;48.59;100561.56;5392910;25;94648;-76
2024/04/10 03:54:36;;;;;;;4.85;1.50;;;;;;;16.65;48.51;100589.81;5399923;25;94725;-78
2024/04/10 03:57:01;;;;;;;4.20;1.98;;;;;;;16.69;48.32;100591.34;5400914;25;94636;-76
2024/04/10 03:59:27;;;;;;;5.28;1.45;;;;;;;16.43;49.12;100591.91;5397125;25;94721;-77
2024/04/10 04:01:55;;;;;;;4.13;1.30;;;;;;;16.39;49.14;100583.28;5398009;25;94627;-76
2024/04/10 04:04:20;;;;;;;6.72;1.63;;;;;;;16.21;49.58;100601.00;5372851;25;94642;-77
2024/04/10 04:06:46;;;;;;;6.85;1.60;;;;;;;16.38;49.72;100623.09;5368421;25;94785;-78
2024/04/10 04:09:12;;;;;;;6.82;1.63;;;;;;;16.21;50.32;100593.06;5400617;25;94803;-77
2024/04/10 04:11:37;;;;;;;2.85;1.30;;;;;;;16.21;50.26;100600.16;5456599;25;94757;-76
2024/04/10 04:14:06;;;;;;;4.60;1.33;;;;;;;16.36;50.45;100627.63;5396082;25;94670;-77
2024/04/10 04:16:31;;;;;;;3.88;1.30;;;;;;;16.43;50.25;100635.16;5428203;25;94686;-77
2024/04/10 04:18:57;;;;;;;6.00;1.67;;;;;;;16.41;50.19;100629.09;5394189;25;97631;-77
2024/04/10 04:21:23;;;;;;;4.03;1.30;;;;;;;16.44;49.80;100628.06;5395133;25;94626;-77
2024/04/10 04:23:49;;;;;;;6.47;1.58;;;;;;;16.42;50.17;100632.59;5395872;25;95093;-76
2024/04/10 04:26:15;;;;;;;8.55;1.63;;;;;;;16.37;50.82;100637.28;5367497;25;97493;-77
2024/04/10 04:28:40;;;;;;;6.63;2.10;;;;;;;16.35;50.40;100652.38;5394266;25;94686;-76
2024/04/10 04:31:06;;;;;;;3.00;1.23;;;;;;;16.18;50.39;100637.41;5368265;25;95382;-76
2024/04/10 04:33:34;;;;;;;3.22;1.10;;;;;;;16.08;50.81;100666.13;5362877;25;95131;-76
2024/04/10 04:36:00;;;;;;;3.55;1.13;;;;;;;16.11;50.23;100650.09;5409820;25;97269;-77
2024/04/10 04:38:28;;;;;;;7.97;5.55;;;;;;;16.06;50.27;100676.81;5394872;25;94841;-77
2024/04/10 04:40:53;;;;;;;6.55;2.10;;;;;;;16.06;50.17;100684.75;5366753;25;94957;-76
2024/04/10 04:43:19;;;;;;;6.25;1.60;;;;;;;16.06;50.61;100683.91;5420972;25;94720;-77
2024/04/10 04:45:45;;;;;;;7.03;1.45;;;;;;;16.30;50.06;100695.03;5394393;25;94227;-76
2024/04/10 04:48:11;;;;;;;4.97;1.30;;;;;;;16.31;49.99;100704.69;5390588;25;94842;-78
2024/04/10 04:50:43;;;;;;;6.00;1.10;;;;;;;16.17;50.19;100709.81;5365208;25;94787;-77
2024/04/10 04:53:12;;;;;;;7.55;1.33;;;;;;;16.02;49.75;100685.84;5396149;25;94698;-77
2024/04/10 04:55:39;;;;;;;4.05;1.50;;;;;;;16.02;50.34;100704.38;5424320;25;96103;-76
2024/04/10 04:58:05;;;;;;;4.25;1.63;;;;;;;16.10;50.08;100729.63;5449640;25;94793;-77
2024/04/10 05:00:31;;;;;;;6.72;1.60;;;;;;;16.07;50.27;100717.38;5399714;25;94636;-76
2024/04/10 05:02:58;;;;;;;4.05;1.33;;;;;;;16.03;49.97;100722.00;5410331;25;94551;-77
2024/04/10 05:05:24;;;;;;;4.35;1.33;;;;;;;15.95;49.90;100713.56;5403990;25;94584;-76
2024/04/10 05:07:50;;;;;;;8.88;1.52;;;;;;;16.02;50.69;100737.94;5396874;25;97374;-74
2024/04/10 05:10:16;;;;;;;2.83;1.20;;;;;;;16.09;50.39;100742.00;5408113;25;96880;-78
2024/04/10 05:12:42;;;;;;;4.85;1.45;;;;;;;16.10;49.97;100743.72;5374949;25;94666;-80
2024/04/10 05:15:10;;;;;;;6.18;1.33;;;;;;;16.13;49.69;100748.84;5428811;25;94467;-82
2024/04/10 05:17:40;;;;;;;4.30;1.40;;;;;;;16.09;49.20;100733.22;5344803;26;97481;-83
2024/04/10 05:20:10;;;;;;;9.02;1.63;;;;;;;16.02;49.56;100756.47;5412626;25;94532;-82
2024/04/10 05:22:37;;;;;;;4.70;1.38;;;;;;;16.03;49.69;100761.72;5347502;26;93756;-82
2024/04/10 05:25:05;;;;;;;14.35;2.45;;;;;;;15.91;50.19;100775.56;5345324;25;96964;-82
2024/04/10 05:27:31;;;;;;;6.40;1.70;;;;;;;15.88;50.06;100743.91;5344903;26;97175;-82
2024/04/10 05:29:59;;;;;;;6.05;1.58;;;;;;;15.99;50.12;100757.47;5440160;25;94656;-83
2024/04/10 05:32:28;;;;;;;3.08;1.10;;;;;;;15.93;50.63;100763.09;5406800;25;94637;-82
2024/04/10 05:34:54;;;;;;;4.53;1.30;;;;;;;15.88;50.54;100757.16;5403976;25;94602;-83
2024/04/10 05:37:21;;;;;;;4.63;1.58;;;;;;;15.86;50.76;100766.97;5390847;25;94616;-82
2024/04/10 05:40:00;;;;;;;3.10;1.42;;;;;;;15.96;50.76;100785.91;5449579;25;95348;-82
2024/04/10 05:42:25;;;;;;;7.93;1.52;;;;;;;16.12;50.79;100800.13;5390483;25;94602;-83
2024/04/10 05:44:51;;;;;;;3.72;1.30;;;;;;;16.09;50.39;100802.06;5437462;25;94668;-83
2024/04/10 05:47:16;;;;;;;4.03;1.30;;;;;;;16.17;50.64;100799.88;5380685;26;94662;-83
2024/04/10 05:49:42;;;;;;;8.43;1.73;;;;;;;15.95;51.17;100805.38;5410790;26;95193;-83
2024/04/10 05:52:07;;;;;;;8.35;2.00;;;;;;;16.02;50.94;100802.34;5381112;26;94618;-84
2024/04/10 05:54:33;;;;;;;11.25;1.85;;;;;;;16.06;50.78;100806.56;5379368;25;93646;-84
2024/04/10 05:56:58;;;;;;;8.98;1.70;;;;;;;15.94;51.04;100793.94;5372273;26;97703;-80
2024/04/10 05:59:26;;;;;;;5.07;1.70;;;;;;;15.89;51.17;100800.38;5395279;26;94599;-80
2024/04/10 06:01:52;;;;;;;18.75;3.15;;;;;;;15.89;51.65;100829.50;5432828;25;94563;-80
2024/04/10 06:04:17;;;;;;;5.30;1.75;;;;;;;15.70;51.44;100833.00;5378096;25;94633;-80
2024/04/10 06:06:43;;;;;;;4.35;1.67;;;;;;;15.56;51.52;100814.25;5409792;25;94657;-80
2024/04/10 06:09:08;;;;;;;8.73;2.58;;;;;;;15.75;51.59;100841.59;5366996;26;94717;-80
2024/04/10 06:11:34;;;;;;;5.50;2.05;;;;;;;15.85;51.51;100847.31;5433844;25;94572;-80
2024/04/10 06:13:59;;;;;;;10.65;3.55;;;;;;;15.73;51.88;100847.88;5442158;25;94707;-79
2024/04/10 06:16:25;;;;;;;4.97;1.73;;;;;;;15.78;51.82;100852.03;5407377;25;95228;-79
2024/04/10 06:18:51;;;;;;;3.97;1.75;;;;;;;15.86;51.26;100848.19;5364691;26;94596;-80
2024/04/10 06:21:16;;;;;;;4.60;1.80;;;;;;;15.80;51.64;100850.19;5350281;25;94959;-80
2024/04/10 06:23:42;;;;;;;5.20;1.75;;;;;;;15.58;51.74;100854.72;5348954;26;96478;-80
2024/04/10 06:26:08;;;;;;;6.47;2.10;;;;;;;15.57;51.83;100853.88;5409939;26;94701;-80
2024/04/10 06:28:34;;;;;;;5.82;1.80;;;;;;;15.80;51.89;100866.06;5379093;26;94739;-80
2024/04/10 06:31:01;;;;;;;8.57;1.70;;;;;;;15.81;51.69;100865.13;5380584;26;94512;-80
2024/04/10 06:33:27;;;;;;;6.70;2.05;;;;;;;15.71;51.44;100853.28;5349396;26;97409;-80
2024/04/10 06:35:52;;;;;;;2.28;1.23;;;;;;;15.68;51.39;100857.81;5411603;25;94688;-80
2024/04/10 06:38:18;;;;;;;3.22;1.48;;;;;;;15.73;51.66;100879.66;5345727;25;94773;-80
2024/04/10 06:40:52;;;;;;;4.03;1.50;;;;;;;15.74;51.50;100873.44;5411398;25;94650;-79
2024/04/10 06:43:18;;;;;;;4.60;1.88;;;;;;;15.77;51.34;100892.69;5381015;26;94612;-80
2024/04/10 06:46:02;;;;;;;7.90;2.83;;;;;;;15.65;51.63;100874.69;5350312;26;97300;-80
2024/04/10 06:48:29;;;;;;;3.78;1.40;;;;;;;15.68;51.11;100890.47;5378331;26;94617;-79
2024/04/10 06:50:56;;;;;;;7.47;2.03;;;;;;;15.82;50.93;100906.56;5349987;26;94756;-80
2024/04/10 06:53:24;;;;;;;5.30;1.70;;;;;;;15.82;50.66;100893.34;5378154;25;94125;-80
2024/04/10 06:55:54;;;;;;;7.50;1.63;;;;;;;15.88;50.61;100921.28;5343881;26;97417;-80
2024/04/10 06:58:19;;;;;;;4.15;1.98;;;;;;;15.70;50.21;100885.09;5398511;25;94729;-80
2024/04/10 07:00:58;;;;;;;6.45;1.55;;;;;;;15.53;51.00;100892.00;5380412;25;94704;-79
2024/04/10 07:03:27;;;;;;;8.13;1.92;;;;;;;15.81;51.11;100926.00;5410847;25;94754;-80
2024/04/10 07:06:16;;;;;;;12.45;2.10;;;;;;;15.71;50.71;100931.81;5439849;25;94603;-80
2024/04/10 07:08:43;;;;;;;3.88;1.40;;;;;;;15.78;50.43;100933.25;5375489;25;96493;-80
2024/04/10 07:11:20;;;;;;;6.90;1.67;;;;;;;15.85;50.61;100947.91;5359127;26;94665;-80
2024/04/10 07:13:50;;;;;;;5.70;1.75;;;;;;;15.79;50.93;100959.63;5381704;26;96977;-80
2024/04/10 07:16:17;;;;;;;3.72;1.35;;;;;;;15.72;50.96;100952.91;5390456;26;94659;-80
2024/04/10 07:18:44;;;;;;;5.47;1.42;;;;;;;15.76;50.74;100951.81;5437025;25;94651;-80
2024/04/10 07:21:11;;;;;;;4.57;2.03;;;;;;;15.86;50.88;100954.06;5437344;25;95112;-80
2024/04/10 07:23:39;;;;;;;3.78;1.20;;;;;;;15.71;51.02;100951.19;5369404;25;97368;-80
2024/04/10 07:26:14;;;;;;;3.72;1.45;;;;;;;15.88;51.27;100949.53;5447522;25;94780;-81
2024/04/10 07:28:46;;;;;;;3.25;1.38;;;;;;;15.91;51.05;100944.09;5402277;25;96867;-80
2024/04/10 07:31:14;;;;;;;5.45;1.88;;;;;;;16.09;50.39;100953.00;5371188;25;94580;-80
2024/04/10 07:33:40;;;;;;;7.40;1.70;;;;;;;15.86;51.28;100927.59;5430944;25;94593;-80
2024/04/10 07:36:13;;;;;;;5.10;1.20;;;;;;;15.93;51.01;100927.22;5377888;25;97478;-80
2024/04/10 07:38:40;;;;;;;4.93;1.52;;;;;;;15.92;51.18;100933.47;5372491;25;94681;-81
2024/04/10 07:41:06;;;;;;;4.32;1.30;;;;;;;15.79;51.42;100933.16;5413263;25;96188;-81
2024/04/10 07:43:34;;;;;;;4.03;1.33;;;;;;;16.05;51.22;100958.41;5398312;25;94720;-80
2024/04/10 07:46:19;;;;;;;4.85;1.65;;;;;;;16.05;51.07;100960.22;5455277;25;94700;-81
2024/04/10 07:48:48;;;;;;;3.35;1.20;;;;;;;15.99;50.89;100956.06;5398297;26;94528;-80
2024/04/10 07:51:14;;;;;;;3.67;1.50;;;;;;;15.99;50.64;100957.84;5427922;25;94627;-86
2024/04/10 07:53:40;;;;;;;6.15;1.58;;;;;;;15.88;51.02;100936.31;5391699;26;94704;-85
2024/04/10 07:56:07;;;;;;;2.78;1.15;;;;;;;16.01;51.08;100972.75;5389169;26;96554;-85
2024/04/10 07:58:33;;;;;;;3.03;1.25;;;;;;;15.98;50.29;100948.22;5411920;25;95577;-87
2024/04/10 08:01:00;;;;;;;4.00;1.48;;;;;;;16.07;50.60;100955.72;5389290;25;94666;-85
2024/04/10 08:03:26;;;;;;;4.03;1.40;;;;;;;16.13;50.49;100967.81;5395754;26;94698;-86
2024/04/10 08:05:52;;;;;;;11.90;1.90;;;;;;;16.15;50.07;100942.13;5416068;25;94655;-85
2024/04/10 08:08:18;;;;;;;4.05;1.35;;;;;;;16.10;50.46;100976.75;5414279;25;94606;-85
2024/04/10 08:10:44;;;;;;;4.13;1.77;;;;;;;16.25;50.08;100980.47;5393920;25;93583;-82
2024/04/10 08:13:10;;;;;;;2.63;1.30;;;;;;;16.17;50.00;100975.53;5462945;25;93533;-82
2024/04/10 08:15:37;;;;;;;4.78;1.55;;;;;;;16.35;49.60;100973.81;5381022;25;94579;-86
2024/04/10 08:18:03;;;;;;;7.78;1.60;;;;;;;16.63;49.41;100997.19;5379553;26;94696;-87
2024/04/10 08:20:29;;;;;;;6.03;1.30;;;;;;;16.47;49.01;100959.97;5390044;25;94646;-87
2024/04/10 08:22:54;;;;;;;6.70;1.85;;;;;;;16.50;49.07;100986.31;5381267;25;94617;-84
2024/04/10 08:25:20;;;;;;;4.45;1.02;;;;;;;16.63;49.05;100991.03;5444025;25;94488;-83
2024/04/10 08:27:45;;;;;;;6.40;1.15;;;;;;;16.62;48.67;101000.78;5419394;25;95212;-84
2024/04/10 08:30:11;;;;;;;4.82;2.25;;;;;;;16.71;48.75;101010.06;5389464;25;94648;-83
2024/04/10 08:32:37;;;;;;;4.07;1.55;;;;;;;16.53;48.62;100983.53;5390009;26;94623;-84
2024/04/10 08:35:04;;;;;;;2.65;1.40;;;;;;;16.61;48.52;101019.38;5378667;26;95815;-83
2024/04/10 08:37:30;;;;;;;7.40;1.70;;;;;;;16.57;48.25;101001.94;5433317;25;94673;-84
2024/04/10 08:39:56;;;;;;;16.58;2.70;;;;;;;16.60;48.89;101015.88;5398947;26;94665;-83
2024/04/10 08:42:21;;;;;;;4.70;1.30;;;;;;;16.71;48.08;100999.47;5393513;26;94735;-83
2024/04/10 08:44:47;;;;;;;7.78;3.33;;;;;;;16.77;48.78;101001.84;5350857;25;97735;-83
2024/04/10 08:47:13;;;;;;;4.78;1.40;;;;;;;16.88;48.27;101026.06;5344868;26;94663;-84
2024/04/10 08:49:39;;;;;;;4.35;1.40;;;;;;;16.71;48.09;101005.63;5406254;25;94643;-83
2024/04/10 08:52:08;;;;;;;4.90;1.27;;;;;;;16.75;48.71;101027.53;5377488;26;94584;-84
2024/04/10 08:54:37;;;;;;;7.03;1.20;;;;;;;16.75;47.42;101020.47;5414071;25;94684;-83
2024/04/10 08:57:04;;;;;;;3.55;1.05;;;;;;;16.61;47.94;101041.47;5382258;26;94652;-83
2024/04/10 08:59:30;;;;;;;8.75;1.60;;;;;;;16.39;48.19;101016.91;5393145;25;94676;-83
2024/04/10 09:01:57;;;;;;;5.40;1.48;;;;;;;16.83;48.07;101056.38;5432637;25;94637;-83
2024/04/10 09:04:24;;;;;;;2.33;1.40;;;;;;;16.66;48.11;101054.50;5425958;25;94762;-83
2024/04/10 09:07:02;;;;;;;4.15;1.20;;;;;;;16.62;48.25;101047.63;5377638;26;94572;-82
2024/04/10 09:09:29;;;;;;;3.20;1.42;;;;;;;16.83;48.09;101074.94;5377810;26;94754;-82
2024/04/10 09:11:54;;;;;;;3.33;1.60;;;;;;;16.80;47.84;101083.03;5450866;25;94588;-81
2024/04/10 09:14:20;;;;;;;3.55;1.88;;;;;;;16.64;47.98;101080.19;5377514;26;94690;-82
2024/04/10 09:16:45;;;;;;;7.90;1.48;;;;;;;16.50;48.21;101094.13;5377325;25;94731;-82
2024/04/10 09:19:18;;;;;;;3.45;1.27;;;;;;;16.62;48.98;101090.03;5348271;26;94575;-83
2024/04/10 09:21:45;;;;;;;4.65;1.55;;;;;;;16.52;48.83;101087.81;5339740;25;93697;-82
2024/04/10 09:24:14;;;;;;;7.15;1.48;;;;;;;16.45;48.61;101069.63;5395008;26;98535;-83
2024/04/10 09:26:41;;;;;;;8.68;1.95;;;;;;;16.50;48.41;101065.81;5393244;25;95386;-83
2024/04/10 09:29:12;;;;;;;5.78;1.33;;;;;;;16.60;48.02;101091.88;5344380;26;95280;-82
2024/04/10 09:31:39;;;;;;;5.30;1.25;;;;;;;16.77;48.01;101099.09;5363780;25;98169;-82
2024/04/10 09:34:05;;;;;;;4.10;1.50;;;;;;;16.84;47.79;101098.72;5423516;25;95574;-82
2024/04/10 09:36:35;;;;;;;8.68;1.70;;;;;;;16.82;48.18;101113.00;5394309;26;95206;-82
2024/04/10 09:39:05;;;;;;;4.00;1.33;;;;;;;16.50;48.11;101087.03;5393098;26;94786;-82
2024/04/10 09:41:34;;;;;;;4.25;1.00;;;;;;;16.48;47.88;101101.28;5369680;26;95411;-81
2024/04/10 09:44:00;;;;;;;3.60;1.30;;;;;;;16.47;48.53;101132.22;5391799;25;94723;-82
2024/04/10 09:46:34;;;;;;;5.55;1.20;;;;;;;16.68;48.00;101110.94;5425180;25;95182;-82
2024/04/10 09:49:11;;;;;;;4.53;2.42;;;;;;;16.89;47.73;101125.00;5396229;25;94479;-81
2024/04/10 09:51:41;;;;;;;3.78;1.73;;;;;;;16.83;47.68;101138.56;5364636;26;94693;-81
2024/04/10 09:54:08;;;;;;;3.72;1.58;;;;;;;16.72;47.63;101136.38;5333137;25;94737;-81
2024/04/10 09:56:39;;;;;;;3.40;1.40;;;;;;;16.83;47.27;101147.38;5370727;26;95363;-82
2024/04/10 09:59:06;;;;;;;3.50;1.30;;;;;;;16.50;47.55;101147.97;5337203;25;94673;-82
2024/04/10 10:01:32;;;;;;;5.50;1.50;;;;;;;16.49;47.84;101140.97;5395952;25;94679;-82
2024/04/10 10:03:57;;;;;;;6.40;1.60;;;;;;;16.68;47.74;101148.91;5367564;25;97606;-82
2024/04/10 10:06:31;;;;;;;3.92;1.50;;;;;;;16.70;47.63;101143.56;5401311;25;94622;-82
2024/04/10 10:08:58;;;;;;;5.88;1.90;;;;;;;16.58;48.05;101158.25;5423413;25;94746;-83
2024/04/10 10:11:24;;;;;;;6.63;2.65;;;;;;;16.60;47.96;101166.97;5371048;26;94811;-82
2024/04/10 10:13:57;;;;;;;4.30;1.27;;;;;;;16.49;47.96;101164.81;5401006;25;94824;-83
2024/04/10 10:16:24;;;;;;;2.65;1.30;;;;;;;16.45;47.79;101144.66;5428608;25;94609;-84
2024/04/10 10:18:56;;;;;;;3.90;1.38;;;;;;;16.35;47.94;101156.63;5392987;25;94814;-86
2024/04/10 10:21:26;;;;;;;4.95;2.33;;;;;;;16.43;48.35;101150.97;5372506;25;95538;-86
2024/04/10 10:24:03;;;;;;;4.28;1.60;;;;;;;16.52;48.03;101162.03;5404106;25;94809;-84
2024/04/10 10:26:29;;;;;;;4.13;1.10;;;;;;;16.67;47.80;101173.72;5371907;26;95342;-84
2024/04/10 10:29:05;;;;;;;3.53;1.50;;;;;;;16.45;47.94;101147.31;5364863;25;94821;-83
2024/04/10 10:31:31;;;;;;;5.00;1.30;;;;;;;16.60;48.19;101179.34;5430286;25;94742;-85
2024/04/10 10:34:14;;;;;;;6.57;1.17;;;;;;;16.49;48.58;101180.72;5399345;25;94818;-84
2024/04/10 10:36:40;;;;;;;2.65;1.35;;;;;;;16.35;47.56;101177.81;5370446;25;94707;-84
2024/04/10 10:39:13;;;;;;;2.38;1.27;;;;;;;16.51;48.15;101178.84;5415540;25;94711;-84
2024/04/10 10:41:39;;;;;;;3.70;1.40;;;;;;;16.59;47.55;101182.94;5448394;25;94647;-84
2024/04/10 10:44:04;;;;;;;7.28;1.50;;;;;;;16.53;47.40;101165.53;5368526;25;96080;-84
2024/04/10 10:46:32;;;;;;;4.15;1.80;;;;;;;16.74;47.28;101185.75;5394388;25;94736;-84
2024/04/10 10:48:58;;;;;;;4.43;1.50;;;;;;;16.79;47.33;101182.94;5357421;25;94587;-83
2024/04/10 10:51:23;;;;;;;2.50;1.20;;;;;;;16.88;47.10;101192.25;5392501;25;94482;-83
2024/04/10 10:53:52;;;;;;;3.38;1.15;;;;;;;16.80;46.78;101170.53;5415910;25;97423;-85
2024/04/10 10:56:25;;;;;;;4.53;1.38;;;;;;;17.19;46.57;101200.47;5393006;25;94778;-85
2024/04/10 10:58:51;;;;;;;6.80;1.58;;;;;;;17.29;46.81;101198.25;5357630;25;94608;-84
2024/04/10 11:01:17;;;;;;;5.25;1.27;;;;;;;16.99;46.87;101187.31;5387159;25;95806;-86
2024/04/10 11:03:43;;;;;;;4.88;1.45;;;;;;;17.14;46.14;101206.94;5393291;25;94659;-83
2024/04/10 11:06:12;;;;;;;4.72;1.42;;;;;;;16.98;46.45;101180.25;5390919;25;94671;-78
2024/04/10 11:08:38;;;;;;;4.30;1.35;;;;;;;16.91;46.56;101205.34;5417056;25;94713;-77
2024/04/10 11:11:04;;;;;;;4.18;1.40;;;;;;;16.81;46.73;101191.66;5379983;26;94782;-83
2024/04/10 11:13:30;;;;;;;5.63;1.35;;;;;;;16.83;46.71;101188.94;5372842;26;95256;-83
2024/04/10 11:15:59;;;;;;;3.92;1.35;;;;;;;17.20;46.52;101214.59;5402161;26;94667;-83
2024/04/10 11:18:25;;;;;;;4.43;1.50;;;;;;;16.85;47.77;101221.56;5339393;25;94751;-83
2024/04/10 11:20:52;;;;;;;4.07;1.50;;;;;;;17.20;51.02;101235.81;5405689;25;98254;-80
2024/04/10 11:23:18;;;;;;;6.50;1.63;;;;;;;17.32;47.07;101234.38;5355790;25;98879;-87